Time;durP1;ratioP1;P1;durP2;ratioP2;P2;SDS_P1;SDS_P2;PMS_P1;PMS_P2;Temp;Humidity;BMP_temperature;BMP_pressure;BME280_temperature;BME280_humidity;BME280_pressure;Samples;Min_cycle;Max_cycle;Signal;HPM_P1;HPM_P2
2022/03/08 00:00:56;;;;;;;11.93;8.20;;;3.30;73.50;;;;;;2064184;28;20552;-85
2022/03/08 00:01:56;;;;;;;12.32;7.97;;;3.30;72.90;;;;;;2083002;28;20496;-85
2022/03/08 00:02:58;;;;;;;10.50;7.35;;;3.30;72.90;;;;;;2085386;28;20022;-86
2022/03/08 00:03:59;;;;;;;12.15;7.43;;;3.30;72.90;;;;;;2076830;28;20053;-86
2022/03/08 00:05:00;;;;;;;10.73;7.00;;;3.20;72.80;;;;;;2067468;28;20122;-85
2022/03/08 00:06:01;;;;;;;9.88;7.53;;;3.20;72.90;;;;;;2082613;28;20045;-86
2022/03/08 00:07:02;;;;;;;11.35;7.32;;;3.20;73.00;;;;;;2079872;28;20028;-86
2022/03/08 00:08:03;;;;;;;9.98;7.07;;;3.20;73.00;;;;;;2068993;28;20416;-86
2022/03/08 00:09:03;;;;;;;12.32;7.15;;;3.20;73.00;;;;;;2064086;28;20485;-85
2022/03/08 00:10:07;;;;;;;11.02;7.90;;;3.20;73.00;;;;;;2072316;28;20038;-86
2022/03/08 00:11:08;;;;;;;11.32;7.38;;;3.20;73.00;;;;;;2077398;28;20136;-86
2022/03/08 00:12:09;;;;;;;12.48;7.32;;;3.10;73.00;;;;;;2080984;28;20025;-86
2022/03/08 00:13:10;;;;;;;11.15;7.32;;;3.20;73.00;;;;;;2081321;28;20446;-86
2022/03/08 00:14:11;;;;;;;12.35;7.65;;;3.20;73.00;;;;;;2080520;28;20118;-86
2022/03/08 00:15:14;;;;;;;11.52;7.53;;;3.20;73.00;;;;;;2080601;28;20037;-86
2022/03/08 00:16:15;;;;;;;11.05;7.50;;;3.20;73.00;;;;;;2080139;28;20132;-86
2022/03/08 00:17:15;;;;;;;10.55;6.90;;;3.20;72.90;;;;;;2080293;28;20033;-86
2022/03/08 00:18:17;;;;;;;10.63;7.28;;;3.20;72.90;;;;;;2080354;28;20074;-85
2022/03/08 00:19:18;;;;;;;10.77;6.95;;;3.20;72.90;;;;;;2081099;28;20072;-86
2022/03/08 00:20:19;;;;;;;9.60;6.38;;;3.20;72.90;;;;;;2080366;28;20535;-85
2022/03/08 00:21:20;;;;;;;10.63;6.93;;;3.10;72.90;;;;;;2078983;28;20049;-86
2022/03/08 00:22:21;;;;;;;10.60;7.43;;;3.10;72.90;;;;;;2081754;28;20052;-86
2022/03/08 00:23:21;;;;;;;10.18;6.93;;;3.10;72.90;;;;;;2073963;28;20033;-86
2022/03/08 00:24:22;;;;;;;10.43;6.68;;;3.10;72.90;;;;;;2065881;28;20042;-86
2022/03/08 00:25:23;;;;;;;12.18;7.63;;;3.10;72.90;;;;;;2073641;28;20467;-86
2022/03/08 00:26:23;;;;;;;9.98;6.63;;;3.10;73.00;;;;;;2080869;28;20084;-86
2022/03/08 00:27:24;;;;;;;11.00;7.38;;;3.10;73.00;;;;;;2082109;28;20030;-86
2022/03/08 00:28:24;;;;;;;10.45;7.07;;;3.10;73.00;;;;;;2082796;28;20030;-86
2022/03/08 00:29:25;;;;;;;11.07;7.00;;;3.10;73.00;;;;;;2081841;28;20495;-85
2022/03/08 00:30:27;;;;;;;9.77;6.53;;;3.10;73.00;;;;;;2079913;28;20048;-86
2022/03/08 00:31:27;;;;;;;10.60;6.90;;;3.10;73.00;;;;;;2079802;28;20479;-86
2022/03/08 00:32:28;;;;;;;10.75;7.03;;;3.10;73.10;;;;;;2081736;28;20044;-86
2022/03/08 00:33:29;;;;;;;11.07;6.85;;;3.10;73.10;;;;;;2081431;28;20028;-86
2022/03/08 00:34:29;;;;;;;11.02;6.40;;;3.10;73.10;;;;;;2073929;28;20030;-86
2022/03/08 00:35:30;;;;;;;9.75;6.85;;;3.10;73.10;;;;;;2065643;28;20068;-86
2022/03/08 00:36:32;;;;;;;9.68;6.60;;;3.10;73.10;;;;;;2069793;28;20030;-86
2022/03/08 00:37:32;;;;;;;10.55;6.60;;;3.10;73.10;;;;;;2081005;28;20144;-86
2022/03/08 00:38:34;;;;;;;10.60;7.13;;;3.10;73.10;;;;;;2082139;28;20022;-86
2022/03/08 00:39:34;;;;;;;10.90;6.78;;;3.10;73.00;;;;;;2082808;28;20127;-86
2022/03/08 00:40:35;;;;;;;10.23;6.90;;;3.10;73.00;;;;;;2080984;28;20487;-86
2022/03/08 00:41:37;;;;;;;11.38;7.53;;;3.10;73.20;;;;;;2081152;28;20029;-86
2022/03/08 00:42:38;;;;;;;11.18;7.20;;;3.10;72.90;;;;;;2064760;28;20033;-86
2022/03/08 00:43:39;;;;;;;10.02;7.15;;;3.10;72.90;;;;;;2073246;28;20026;-86
2022/03/08 00:44:40;;;;;;;9.93;7.03;;;3.10;72.80;;;;;;2074524;28;20026;-86
2022/03/08 00:45:41;;;;;;;10.90;6.55;;;3.00;72.80;;;;;;2077869;28;20144;-86
2022/03/08 00:46:42;;;;;;;10.40;6.57;;;3.10;72.80;;;;;;2079431;28;20484;-86
2022/03/08 00:47:43;;;;;;;10.45;7.05;;;3.10;72.70;;;;;;2065106;28;20034;-86
2022/03/08 00:48:44;;;;;;;9.88;6.90;;;3.00;72.70;;;;;;2074725;28;20029;-86
2022/03/08 00:49:45;;;;;;;9.68;6.68;;;3.10;72.70;;;;;;2081637;28;20040;-86
2022/03/08 00:50:45;;;;;;;10.98;6.97;;;3.10;72.60;;;;;;2081826;28;20026;-86
2022/03/08 00:51:47;;;;;;;10.00;6.78;;;3.10;72.60;;;;;;2081176;28;20488;-86
2022/03/08 00:52:49;;;;;;;9.68;6.22;;;3.10;72.70;;;;;;2082506;28;20099;-85
2022/03/08 00:53:50;;;;;;;9.00;6.30;;;3.00;72.60;;;;;;2082147;28;20029;-86
2022/03/08 00:54:50;;;;;;;9.23;6.40;;;3.00;72.60;;;;;;2082375;28;20505;-86
2022/03/08 00:55:51;;;;;;;9.13;6.40;;;3.00;72.60;;;;;;2082353;28;20037;-86
2022/03/08 00:56:52;;;;;;;9.48;6.32;;;3.00;72.50;;;;;;2082111;28;20026;-86
2022/03/08 00:57:53;;;;;;;9.40;6.20;;;3.00;72.50;;;;;;2081858;28;20040;-86
2022/03/08 00:58:54;;;;;;;9.93;6.18;;;3.00;72.50;;;;;;2073078;28;20018;-86
2022/03/08 00:59:54;;;;;;;9.45;6.10;;;3.00;73.10;;;;;;2073033;28;20504;-86
2022/03/08 01:00:55;;;;;;;8.77;5.75;;;3.00;72.50;;;;;;2073220;28;20022;-86
2022/03/08 01:01:56;;;;;;;8.70;5.95;;;3.00;72.50;;;;;;2078103;28;20031;-86
2022/03/08 01:02:57;;;;;;;8.77;5.88;;;3.00;72.50;;;;;;2090060;28;20498;-85
2022/03/08 01:03:58;;;;;;;10.38;6.25;;;3.00;72.50;;;;;;2080900;28;20159;-86
2022/03/08 01:04:58;;;;;;;8.95;5.55;;;3.00;72.50;;;;;;2082063;28;20543;-85
2022/03/08 01:05:59;;;;;;;9.18;6.07;;;3.00;72.50;;;;;;2081541;28;20029;-86
2022/03/08 01:07:00;;;;;;;10.02;6.15;;;3.00;72.50;;;;;;2081656;28;20053;-86
2022/03/08 01:08:01;;;;;;;9.15;5.63;;;3.00;72.50;;;;;;2081531;28;20164;-86
2022/03/08 01:09:03;;;;;;;9.68;5.75;;;3.00;72.50;;;;;;2080675;28;20165;-85
2022/03/08 01:10:06;;;;;;;8.63;5.57;;;2.90;72.50;;;;;;2081157;28;20139;-86
2022/03/08 01:11:06;;;;;;;8.48;5.45;;;3.00;72.60;;;;;;2081852;28;20088;-86
2022/03/08 01:12:08;;;;;;;9.73;5.72;;;2.90;72.50;;;;;;2080758;28;20075;-85
2022/03/08 01:13:08;;;;;;;7.78;5.28;;;2.90;72.60;;;;;;2076138;28;20543;-86
2022/03/08 01:14:09;;;;;;;8.55;5.38;;;2.90;72.60;;;;;;2081618;28;20053;-85
2022/03/08 01:15:11;;;;;;;7.38;5.28;;;2.90;72.60;;;;;;2082026;28;20140;-85
2022/03/08 01:16:12;;;;;;;8.07;5.38;;;2.90;72.60;;;;;;2082247;28;20504;-85
2022/03/08 01:17:12;;;;;;;8.35;5.05;;;2.90;72.60;;;;;;2082294;28;20033;-85
2022/03/08 01:18:13;;;;;;;7.57;5.00;;;2.90;72.70;;;;;;2082061;28;20029;-86
2022/03/08 01:19:14;;;;;;;8.00;5.30;;;2.90;72.70;;;;;;2081941;28;20064;-86
2022/03/08 01:20:15;;;;;;;7.72;5.10;;;2.90;73.00;;;;;;2082393;28;20030;-86
2022/03/08 01:21:16;;;;;;;7.80;4.97;;;2.90;72.70;;;;;;2071142;28;20153;-86
2022/03/08 01:22:17;;;;;;;8.80;5.53;;;2.90;72.70;;;;;;2067691;28;20417;-86
2022/03/08 01:23:17;;;;;;;7.72;5.15;;;2.90;72.70;;;;;;2073363;28;20029;-87
2022/03/08 01:24:18;;;;;;;7.07;4.97;;;2.90;72.60;;;;;;2073322;28;20025;-86
2022/03/08 01:25:20;;;;;;;8.30;5.07;;;2.80;72.60;;;;;;2074085;28;20183;-86
2022/03/08 01:26:21;;;;;;;7.68;5.05;;;2.90;72.70;;;;;;2080520;28;20022;-86
2022/03/08 01:27:21;;;;;;;8.38;5.22;;;2.80;72.60;;;;;;2081447;28;20437;-86
2022/03/08 01:28:22;;;;;;;8.02;5.30;;;2.80;72.60;;;;;;2080596;28;20530;-86
2022/03/08 01:29:23;;;;;;;8.13;5.13;;;2.80;72.60;;;;;;2082271;28;20111;-86
2022/03/08 01:30:25;;;;;;;8.75;5.40;;;2.80;72.60;;;;;;2081870;28;20025;-86
2022/03/08 01:31:26;;;;;;;10.40;5.60;;;2.80;72.70;;;;;;2081673;28;20052;-86
2022/03/08 01:32:27;;;;;;;10.73;5.90;;;2.80;72.70;;;;;;2079500;28;20029;-86
2022/03/08 01:33:28;;;;;;;8.40;5.53;;;2.80;72.60;;;;;;2073418;28;20069;-86
2022/03/08 01:34:28;;;;;;;9.40;5.25;;;2.80;72.60;;;;;;2065138;28;20041;-86
2022/03/08 01:35:29;;;;;;;8.80;5.80;;;2.80;72.60;;;;;;2081250;28;20037;-86
2022/03/08 01:36:30;;;;;;;8.68;5.70;;;2.80;72.70;;;;;;2082286;28;20040;-86
2022/03/08 01:37:31;;;;;;;7.85;5.18;;;2.80;72.60;;;;;;2073310;28;20053;-85
2022/03/08 01:38:32;;;;;;;8.07;5.38;;;2.80;72.70;;;;;;2072445;28;20104;-86
2022/03/08 01:39:32;;;;;;;7.68;4.75;;;2.80;72.70;;;;;;2082212;28;20079;-86
2022/03/08 01:40:33;;;;;;;9.60;5.35;;;2.70;72.60;;;;;;2080993;28;20040;-85
2022/03/08 01:41:34;;;;;;;7.93;5.22;;;2.80;72.70;;;;;;2078666;28;20030;-85
2022/03/08 01:42:35;;;;;;;8.82;5.07;;;2.70;72.70;;;;;;2075475;28;20129;-85
2022/03/08 01:43:36;;;;;;;7.93;5.05;;;2.70;72.70;;;;;;2081473;28;20044;-86
2022/03/08 01:44:43;;;;;;;6.88;4.72;;;2.70;72.70;;;;;;2081565;28;20029;-86
2022/03/08 01:45:44;;;;;;;7.47;4.82;;;2.70;72.70;;;;;;2081867;28;20128;-85
2022/03/08 01:46:45;;;;;;;7.93;4.85;;;2.80;72.80;;;;;;2081764;28;20026;-86
2022/03/08 01:47:46;;;;;;;8.18;5.03;;;2.70;72.80;;;;;;2082094;28;20028;-86
2022/03/08 01:48:46;;;;;;;7.13;4.53;;;2.70;72.70;;;;;;2072826;28;20049;-86
2022/03/08 01:49:48;;;;;;;6.97;4.40;;;2.70;72.70;;;;;;2073086;28;20041;-86
2022/03/08 01:50:49;;;;;;;7.60;4.88;;;2.70;72.80;;;;;;2080607;28;20041;-86
2022/03/08 01:51:50;;;;;;;6.75;4.50;;;2.70;72.80;;;;;;2079796;28;20022;-86
2022/03/08 01:52:52;;;;;;;7.28;4.38;;;2.70;72.80;;;;;;2080420;28;20484;-86
2022/03/08 01:53:53;;;;;;;8.60;4.90;;;2.70;72.80;;;;;;2082080;28;20029;-86
2022/03/08 01:54:54;;;;;;;6.97;4.25;;;2.70;72.90;;;;;;2081087;28;20384;-86
2022/03/08 01:55:54;;;;;;;6.78;4.28;;;2.70;72.90;;;;;;2081563;28;20061;-86
2022/03/08 01:56:55;;;;;;;6.40;4.30;;;2.70;72.80;;;;;;2082051;28;20548;-86
2022/03/08 01:57:55;;;;;;;6.97;4.20;;;2.70;72.80;;;;;;2081165;28;20029;-86
2022/03/08 01:58:56;;;;;;;6.35;3.80;;;2.70;72.90;;;;;;2072585;28;20064;-86
2022/03/08 01:59:57;;;;;;;7.13;4.63;;;2.70;72.80;;;;;;2080463;28;20033;-86
2022/03/08 02:00:58;;;;;;;6.00;3.90;;;2.70;72.90;;;;;;2073406;28;20060;-86
2022/03/08 02:01:58;;;;;;;6.03;3.88;;;2.70;72.90;;;;;;2080714;28;20021;-86
2022/03/08 02:02:59;;;;;;;6.75;4.07;;;2.70;73.00;;;;;;2080894;28;20132;-86
2022/03/08 02:04:00;;;;;;;6.55;3.80;;;2.70;72.90;;;;;;2081634;28;20025;-86
2022/03/08 02:05:00;;;;;;;6.15;3.88;;;2.70;72.90;;;;;;2081369;28;20120;-86
2022/03/08 02:06:01;;;;;;;5.95;3.90;;;2.70;73.00;;;;;;2072522;28;20030;-86
2022/03/08 02:07:04;;;;;;;5.85;3.53;;;2.70;73.00;;;;;;2064277;28;20089;-86
2022/03/08 02:08:05;;;;;;;9.00;4.00;;;2.70;73.00;;;;;;2073633;28;20361;-85
2022/03/08 02:09:05;;;;;;;7.28;3.55;;;2.60;73.50;;;;;;2078084;28;20124;-86
2022/03/08 02:10:08;;;;;;;6.07;3.80;;;2.60;72.90;;;;;;2072634;28;20477;-85
2022/03/08 02:11:08;;;;;;;6.18;3.72;;;2.60;73.00;;;;;;2064717;28;20026;-86
2022/03/08 02:12:10;;;;;;;5.78;3.78;;;2.60;72.90;;;;;;2073148;28;20048;-86
2022/03/08 02:13:11;;;;;;;6.00;3.80;;;2.60;72.90;;;;;;2079204;28;20068;-86
2022/03/08 02:14:11;;;;;;;6.40;4.20;;;2.60;73.00;;;;;;2081863;28;20492;-86
2022/03/08 02:15:14;;;;;;;5.55;3.53;;;2.60;73.00;;;;;;2073143;28;20136;-86
2022/03/08 02:16:15;;;;;;;5.60;3.70;;;2.60;73.00;;;;;;2073350;28;20050;-86
2022/03/08 02:17:16;;;;;;;5.75;3.70;;;2.60;73.00;;;;;;2081220;28;20053;-86
2022/03/08 02:18:17;;;;;;;6.43;3.60;;;2.60;73.00;;;;;;2081127;28;20451;-86
2022/03/08 02:19:18;;;;;;;6.18;3.35;;;2.60;73.00;;;;;;2079365;28;20456;-85
2022/03/08 02:20:19;;;;;;;5.72;3.55;;;2.60;73.00;;;;;;2079133;28;20108;-85
2022/03/08 02:21:20;;;;;;;6.63;3.60;;;2.60;73.00;;;;;;2080930;28;20081;-86
2022/03/08 02:22:20;;;;;;;5.72;3.63;;;2.60;72.90;;;;;;2080507;28;20017;-85
2022/03/08 02:23:21;;;;;;;5.28;3.45;;;2.60;72.90;;;;;;2079775;28;20041;-86
2022/03/08 02:24:22;;;;;;;5.75;3.88;;;2.60;72.90;;;;;;2080423;28;20041;-86
2022/03/08 02:25:23;;;;;;;6.07;3.85;;;2.60;72.90;;;;;;2081907;28;20037;-86
2022/03/08 02:26:24;;;;;;;5.75;3.90;;;2.60;72.90;;;;;;2080424;28;20169;-86
2022/03/08 02:27:24;;;;;;;6.63;4.03;;;2.60;72.90;;;;;;2074722;28;20045;-86
2022/03/08 02:28:25;;;;;;;5.43;3.42;;;2.60;72.80;;;;;;2073719;28;20469;-86
2022/03/08 02:29:27;;;;;;;7.15;4.15;;;2.60;72.80;;;;;;2078697;28;20479;-86
2022/03/08 02:30:28;;;;;;;6.00;3.85;;;2.60;72.70;;;;;;2080886;28;20076;-86
2022/03/08 02:31:28;;;;;;;6.47;4.07;;;2.50;72.70;;;;;;2064803;28;20041;-86
2022/03/08 02:32:29;;;;;;;6.15;3.90;;;2.50;72.70;;;;;;2073089;28;20030;-86
2022/03/08 02:33:29;;;;;;;7.28;3.97;;;2.50;72.70;;;;;;2080255;28;20400;-86
2022/03/08 02:34:30;;;;;;;6.13;4.00;;;2.50;72.60;;;;;;2080581;28;20526;-86
2022/03/08 02:35:32;;;;;;;6.00;3.95;;;2.50;72.50;;;;;;2080573;28;20044;-86
2022/03/08 02:36:32;;;;;;;6.25;3.97;;;2.50;72.50;;;;;;2081521;28;20033;-86
2022/03/08 02:37:40;;;;;;;6.88;3.80;;;2.50;72.40;;;;;;2075450;28;20125;-86
2022/03/08 02:38:41;;;;;;;5.57;3.53;;;2.50;72.40;;;;;;2085960;28;20028;-86
2022/03/08 02:39:42;;;;;;;6.05;3.53;;;2.50;72.40;;;;;;2080606;28;20049;-86
2022/03/08 02:40:46;;;;;;;6.22;3.63;;;2.50;72.30;;;;;;2081018;28;20377;-86
2022/03/08 02:41:47;;;;;;;5.35;3.47;;;2.50;72.30;;;;;;2081138;28;20120;-85
2022/03/08 02:42:48;;;;;;;6.18;3.60;;;2.50;72.40;;;;;;2081593;28;20040;-86
2022/03/08 02:43:48;;;;;;;5.50;3.45;;;2.50;72.40;;;;;;2079356;28;20033;-86
2022/03/08 02:44:49;;;;;;;5.88;3.35;;;2.50;72.30;;;;;;2072799;28;20026;-85
2022/03/08 02:45:50;;;;;;;5.32;3.10;;;2.50;72.30;;;;;;2061459;28;20038;-86
2022/03/08 02:46:51;;;;;;;6.20;3.30;;;2.50;72.30;;;;;;2064876;28;20117;-86
2022/03/08 02:47:52;;;;;;;4.95;3.13;;;2.50;72.30;;;;;;2078617;28;20029;-86
2022/03/08 02:48:53;;;;;;;5.55;3.42;;;2.50;72.30;;;;;;2081065;28;20499;-86
2022/03/08 02:49:53;;;;;;;5.28;3.05;;;2.50;72.30;;;;;;2072616;28;20034;-86
2022/03/08 02:50:55;;;;;;;5.35;3.30;;;2.50;72.30;;;;;;2072941;28;20026;-86
2022/03/08 02:51:56;;;;;;;5.75;3.40;;;2.50;72.20;;;;;;2072601;28;20034;-86
2022/03/08 02:52:57;;;;;;;5.53;3.40;;;2.50;72.30;;;;;;2073041;28;20098;-86
2022/03/08 02:53:58;;;;;;;4.68;3.15;;;2.50;72.20;;;;;;2075088;28;20041;-86
2022/03/08 02:54:59;;;;;;;6.88;3.60;;;2.50;72.20;;;;;;2074589;28;20060;-85
2022/03/08 02:55:59;;;;;;;4.80;3.08;;;2.50;72.20;;;;;;2081051;28;20515;-86
2022/03/08 02:57:00;;;;;;;5.38;3.08;;;2.50;72.10;;;;;;2081066;28;20120;-86
2022/03/08 02:58:02;;;;;;;5.30;3.10;;;2.50;72.10;;;;;;2070889;28;20045;-85
2022/03/08 02:59:02;;;;;;;5.05;3.17;;;2.50;72.10;;;;;;2072885;28;20034;-85
2022/03/08 03:00:05;;;;;;;5.28;3.20;;;2.50;72.10;;;;;;2078180;28;20036;-86
2022/03/08 03:01:06;;;;;;;4.53;2.90;;;2.50;72.10;;;;;;2081004;28;20025;-86
2022/03/08 03:02:06;;;;;;;5.93;3.25;;;2.50;72.10;;;;;;2072039;28;20033;-86
2022/03/08 03:03:08;;;;;;;6.63;3.53;;;2.50;72.10;;;;;;2079943;28;20111;-86
2022/03/08 03:04:09;;;;;;;5.43;3.30;;;2.50;72.00;;;;;;2081363;28;20033;-86
2022/03/08 03:05:10;;;;;;;5.18;3.13;;;2.50;71.90;;;;;;2081188;28;20120;-85
2022/03/08 03:06:11;;;;;;;5.95;3.17;;;2.50;71.90;;;;;;2081695;28;20116;-85
2022/03/08 03:07:14;;;;;;;5.65;3.40;;;2.50;71.90;;;;;;2080873;28;20096;-85
2022/03/08 03:08:15;;;;;;;4.57;2.60;;;2.50;71.90;;;;;;2080400;28;20057;-86
2022/03/08 03:09:16;;;;;;;5.50;2.90;;;2.50;71.90;;;;;;2080851;28;20053;-85
2022/03/08 03:10:19;;;;;;;5.18;3.13;;;2.50;71.70;;;;;;2080926;28;20044;-86
2022/03/08 03:11:19;;;;;;;4.00;2.45;;;2.50;71.70;;;;;;2071941;28;20506;-86
2022/03/08 03:12:20;;;;;;;6.40;3.40;;;2.50;71.70;;;;;;2075853;28;20040;-86
2022/03/08 03:13:21;;;;;;;4.65;3.05;;;2.50;71.70;;;;;;2075767;28;20021;-85
2022/03/08 03:14:21;;;;;;;5.32;3.08;;;2.50;71.60;;;;;;2056514;28;20777;-86
2022/03/08 03:15:23;;;;;;;4.90;3.10;;;2.50;71.50;;;;;;2064793;28;20049;-86
2022/03/08 03:16:23;;;;;;;5.43;3.00;;;2.50;71.40;;;;;;2081148;28;20049;-85
2022/03/08 03:17:24;;;;;;;5.00;2.88;;;2.50;71.40;;;;;;2080319;28;20065;-86
2022/03/08 03:18:25;;;;;;;5.50;3.33;;;2.50;71.30;;;;;;2079777;28;20472;-86
2022/03/08 03:19:25;;;;;;;5.57;3.22;;;2.50;71.30;;;;;;2080389;28;20431;-86
2022/03/08 03:20:27;;;;;;;5.55;3.00;;;2.50;71.20;;;;;;2080928;28;20112;-86
2022/03/08 03:21:28;;;;;;;5.55;3.17;;;2.50;71.10;;;;;;2072871;28;20064;-86
2022/03/08 03:22:29;;;;;;;5.82;3.38;;;2.50;71.10;;;;;;2079807;28;20034;-86
2022/03/08 03:23:29;;;;;;;5.47;3.65;;;2.50;71.00;;;;;;2081476;28;20033;-86
2022/03/08 03:24:30;;;;;;;7.07;3.50;;;2.50;71.00;;;;;;2080897;28;20053;-86
2022/03/08 03:25:31;;;;;;;6.20;3.50;;;2.50;70.90;;;;;;2072746;28;20510;-86
2022/03/08 03:26:31;;;;;;;6.57;3.15;;;2.50;71.00;;;;;;2080401;28;20048;-86
2022/03/08 03:27:32;;;;;;;6.10;3.63;;;2.50;71.00;;;;;;2072740;28;20124;-86
2022/03/08 03:28:33;;;;;;;5.20;3.38;;;2.50;71.10;;;;;;2072744;28;20030;-86
2022/03/08 03:29:33;;;;;;;5.90;3.60;;;2.50;71.00;;;;;;2080449;28;20504;-85
2022/03/08 03:30:34;;;;;;;5.53;3.60;;;2.50;71.00;;;;;;2082030;28;20029;-85
2022/03/08 03:31:35;;;;;;;6.78;3.33;;;2.50;70.90;;;;;;2082488;28;20025;-86
2022/03/08 03:32:36;;;;;;;7.68;3.60;;;2.50;70.90;;;;;;2066827;28;20035;-85
2022/03/08 03:33:36;;;;;;;8.38;4.10;;;2.50;70.90;;;;;;2069872;28;20046;-84
2022/03/08 03:34:37;;;;;;;5.13;3.13;;;2.50;70.90;;;;;;2085977;28;20040;-85
2022/03/08 03:35:37;;;;;;;6.45;4.03;;;2.50;70.90;;;;;;2085620;28;20519;-86
2022/03/08 03:36:38;;;;;;;7.20;4.00;;;2.50;70.90;;;;;;2085231;28;20491;-87
2022/03/08 03:37:39;;;;;;;6.22;3.70;;;2.50;70.70;;;;;;2074763;28;20081;-85
2022/03/08 03:38:39;;;;;;;6.20;3.67;;;2.40;70.10;;;;;;2081915;28;20034;-86
2022/03/08 03:39:40;;;;;;;6.40;3.75;;;2.40;70.70;;;;;;2081271;28;20037;-86
2022/03/08 03:40:41;;;;;;;6.63;4.10;;;2.40;70.60;;;;;;2080983;28;20022;-85
2022/03/08 03:41:41;;;;;;;6.72;4.00;;;2.40;70.60;;;;;;2072236;28;20120;-85
2022/03/08 03:42:42;;;;;;;6.32;3.70;;;2.40;70.70;;;;;;2077127;28;20399;-86
2022/03/08 03:43:43;;;;;;;6.35;3.65;;;2.40;70.60;;;;;;2073532;28;20172;-85
2022/03/08 03:44:46;;;;;;;6.20;3.67;;;2.40;70.70;;;;;;2077091;28;20385;-85
2022/03/08 03:45:47;;;;;;;6.13;3.85;;;2.40;70.70;;;;;;2071537;28;20022;-85
2022/03/08 03:46:47;;;;;;;5.43;3.38;;;2.40;70.60;;;;;;2072990;28;20519;-85
2022/03/08 03:47:48;;;;;;;6.75;3.78;;;2.40;70.60;;;;;;2081037;28;20033;-86
2022/03/08 03:48:49;;;;;;;5.22;3.35;;;2.40;70.60;;;;;;2080009;28;20035;-86
2022/03/08 03:49:49;;;;;;;5.40;3.47;;;2.40;70.60;;;;;;2066127;28;20026;-86
2022/03/08 03:50:50;;;;;;;5.43;3.25;;;2.40;70.70;;;;;;2074426;28;20130;-86
2022/03/08 03:51:51;;;;;;;6.15;3.58;;;2.40;70.70;;;;;;2072506;28;20060;-86
2022/03/08 03:52:52;;;;;;;5.85;3.63;;;2.30;70.60;;;;;;2052015;28;20413;-86
2022/03/08 03:53:53;;;;;;;6.13;3.53;;;2.40;70.60;;;;;;2064825;28;20041;-85
2022/03/08 03:54:53;;;;;;;5.43;3.13;;;2.30;70.50;;;;;;2080688;28;20029;-86
2022/03/08 03:55:54;;;;;;;4.90;3.20;;;2.40;70.70;;;;;;2072635;28;20041;-86
2022/03/08 03:56:55;;;;;;;6.00;3.38;;;2.40;70.60;;;;;;2080795;28;20472;-86
2022/03/08 03:57:56;;;;;;;5.78;3.50;;;2.30;70.60;;;;;;2081545;28;20412;-86
2022/03/08 03:58:56;;;;;;;4.50;3.10;;;2.30;70.60;;;;;;2081925;28;20026;-86
2022/03/08 03:59:57;;;;;;;5.18;3.22;;;2.30;70.60;;;;;;2082772;28;20044;-86
2022/03/08 04:00:57;;;;;;;6.55;3.50;;;2.30;70.70;;;;;;2082217;28;20403;-86
2022/03/08 04:01:58;;;;;;;6.65;3.72;;;2.30;70.60;;;;;;2070828;28;20491;-86
2022/03/08 04:02:59;;;;;;;6.93;3.50;;;2.30;70.50;;;;;;2082034;28;20447;-85
2022/03/08 04:03:59;;;;;;;7.18;3.88;;;2.30;70.50;;;;;;2082147;28;20581;-86
2022/03/08 04:05:00;;;;;;;6.70;3.92;;;2.30;70.50;;;;;;2083151;28;20379;-85
2022/03/08 04:06:00;;;;;;;6.22;3.80;;;2.20;70.40;;;;;;2081790;28;20026;-86
2022/03/08 04:07:01;;;;;;;6.45;3.95;;;2.30;70.50;;;;;;2082288;28;20057;-86
2022/03/08 04:08:02;;;;;;;6.25;3.90;;;2.20;70.40;;;;;;2081652;28;20030;-86
2022/03/08 04:09:04;;;;;;;6.90;3.97;;;2.20;70.40;;;;;;2073325;28;20495;-85
2022/03/08 04:10:06;;;;;;;6.90;4.10;;;2.30;70.30;;;;;;2081771;28;20569;-86
2022/03/08 04:11:07;;;;;;;6.55;3.92;;;2.20;70.70;;;;;;2082740;28;20037;-86
2022/03/08 04:12:08;;;;;;;5.88;3.75;;;2.20;70.30;;;;;;2082181;28;20120;-86
2022/03/08 04:13:09;;;;;;;5.78;3.67;;;2.20;70.40;;;;;;2080794;28;20112;-86
2022/03/08 04:14:09;;;;;;;6.57;3.35;;;2.30;70.40;;;;;;2073938;28;20034;-85
2022/03/08 04:15:11;;;;;;;7.15;3.50;;;2.20;70.40;;;;;;2074047;28;20076;-86
2022/03/08 04:16:11;;;;;;;7.72;3.95;;;2.20;70.40;;;;;;2082038;28;20473;-86
2022/03/08 04:17:12;;;;;;;5.35;3.63;;;2.20;70.40;;;;;;2069544;28;20034;-85
2022/03/08 04:18:13;;;;;;;5.32;3.30;;;2.20;70.40;;;;;;2065767;28;20085;-85
2022/03/08 04:19:14;;;;;;;6.05;3.42;;;2.20;70.40;;;;;;2074371;28;20108;-85
2022/03/08 04:20:14;;;;;;;5.78;3.67;;;2.20;70.40;;;;;;2076218;28;20472;-85
2022/03/08 04:21:15;;;;;;;5.95;3.75;;;2.20;70.30;;;;;;2082322;28;20021;-85
2022/03/08 04:22:15;;;;;;;7.03;4.05;;;2.20;70.30;;;;;;2082159;28;20028;-86
2022/03/08 04:23:16;;;;;;;7.10;3.50;;;2.20;70.30;;;;;;2082844;28;20144;-85
2022/03/08 04:24:17;;;;;;;6.05;3.22;;;2.20;70.30;;;;;;2082259;28;20442;-85
2022/03/08 04:25:17;;;;;;;6.05;3.67;;;2.20;70.30;;;;;;2067795;28;20121;-86
2022/03/08 04:26:18;;;;;;;6.03;4.00;;;2.20;70.40;;;;;;2057766;28;20031;-86
2022/03/08 04:27:19;;;;;;;5.90;3.67;;;2.20;70.30;;;;;;2069766;28;20108;-86
2022/03/08 04:28:19;;;;;;;6.90;3.95;;;2.20;70.30;;;;;;2074576;28;20081;-86
2022/03/08 04:29:20;;;;;;;6.10;3.65;;;2.20;70.30;;;;;;2074267;28;20393;-86
2022/03/08 04:30:21;;;;;;;5.63;3.65;;;2.20;70.30;;;;;;2080224;28;20087;-85
2022/03/08 04:31:21;;;;;;;5.72;3.53;;;2.20;70.30;;;;;;2073654;28;20493;-86
2022/03/08 04:32:22;;;;;;;6.18;3.47;;;2.20;70.30;;;;;;2080975;28;20049;-86
2022/03/08 04:33:23;;;;;;;5.90;3.75;;;2.20;70.30;;;;;;2073776;28;20052;-85
2022/03/08 04:34:24;;;;;;;6.32;3.45;;;2.20;70.30;;;;;;2072612;28;20393;-85
2022/03/08 04:35:25;;;;;;;4.93;3.40;;;2.20;70.30;;;;;;2081813;28;20459;-86
2022/03/08 04:36:26;;;;;;;5.47;3.40;;;2.20;70.30;;;;;;2065890;28;20691;-86
2022/03/08 04:37:26;;;;;;;5.38;3.40;;;2.20;70.30;;;;;;2057595;28;20086;-85
2022/03/08 04:38:27;;;;;;;5.22;3.20;;;2.20;70.30;;;;;;2066016;28;20054;-85
2022/03/08 04:39:27;;;;;;;5.32;3.35;;;2.20;70.30;;;;;;2057764;28;20186;-86
2022/03/08 04:40:29;;;;;;;5.30;3.17;;;2.20;70.20;;;;;;2069006;28;20104;-86
2022/03/08 04:41:29;;;;;;;4.30;2.72;;;2.20;70.30;;;;;;2080812;28;20519;-86
2022/03/08 04:42:30;;;;;;;5.85;3.45;;;2.20;70.20;;;;;;2066252;28;20050;-86
2022/03/08 04:43:31;;;;;;;5.13;3.00;;;2.20;70.20;;;;;;2073879;28;20026;-86
2022/03/08 04:44:32;;;;;;;4.72;2.95;;;2.20;70.30;;;;;;2081865;28;20029;-86
2022/03/08 04:45:32;;;;;;;5.90;2.78;;;2.20;70.20;;;;;;2081892;28;20077;-85
2022/03/08 04:46:33;;;;;;;5.75;3.55;;;2.20;70.10;;;;;;2073816;28;20121;-86
2022/03/08 04:47:35;;;;;;;5.70;3.13;;;2.20;70.20;;;;;;2082098;28;20574;-86
2022/03/08 04:48:36;;;;;;;5.20;2.83;;;2.20;70.20;;;;;;2081409;28;20025;-86
2022/03/08 04:49:36;;;;;;;6.05;3.13;;;2.20;70.20;;;;;;2073712;28;20092;-86
2022/03/08 04:50:38;;;;;;;5.03;3.25;;;2.20;70.10;;;;;;2072529;28;20022;-86
2022/03/08 04:51:39;;;;;;;4.88;2.90;;;2.20;70.10;;;;;;2071753;28;20041;-86
2022/03/08 04:52:41;;;;;;;5.72;2.72;;;2.20;70.10;;;;;;2080694;28;20025;-86
2022/03/08 04:53:42;;;;;;;6.00;3.28;;;2.30;70.00;;;;;;2082050;28;20569;-85
2022/03/08 04:54:43;;;;;;;6.22;3.17;;;2.20;70.00;;;;;;2082190;28;20091;-86
2022/03/08 04:55:43;;;;;;;5.30;3.15;;;2.20;70.00;;;;;;2082032;28;20060;-86
2022/03/08 04:56:44;;;;;;;5.80;3.65;;;2.20;69.90;;;;;;2082078;28;20032;-86
2022/03/08 04:57:46;;;;;;;5.15;3.25;;;2.30;70.00;;;;;;2073725;28;20030;-86
2022/03/08 04:58:47;;;;;;;5.65;3.38;;;2.20;69.90;;;;;;2073778;28;20465;-85
2022/03/08 04:59:47;;;;;;;4.72;2.95;;;2.20;69.90;;;;;;2073357;28;20034;-86
2022/03/08 05:00:48;;;;;;;5.85;3.28;;;2.20;69.90;;;;;;2073533;28;20025;-86
2022/03/08 05:01:49;;;;;;;5.45;3.33;;;2.20;70.00;;;;;;2079698;28;20534;-86
2022/03/08 05:02:49;;;;;;;6.10;3.58;;;2.20;69.90;;;;;;2081878;28;20071;-86
2022/03/08 05:03:50;;;;;;;4.70;3.20;;;2.30;70.00;;;;;;2081576;28;20073;-86
2022/03/08 05:04:51;;;;;;;5.30;3.33;;;2.20;69.90;;;;;;2082357;28;20030;-86
2022/03/08 05:05:51;;;;;;;5.60;3.40;;;2.20;69.90;;;;;;2081634;28;20397;-86
2022/03/08 05:06:52;;;;;;;5.35;3.20;;;2.20;69.90;;;;;;2081846;28;20088;-85
2022/03/08 05:07:53;;;;;;;4.25;2.83;;;2.20;69.80;;;;;;2073515;28;20520;-86
2022/03/08 05:08:53;;;;;;;5.25;3.08;;;2.20;69.80;;;;;;2080445;28;20504;-85
2022/03/08 05:09:54;;;;;;;6.38;3.40;;;2.20;69.80;;;;;;2081484;28;20548;-86
2022/03/08 05:10:54;;;;;;;5.13;3.10;;;2.20;69.80;;;;;;2081024;28;20067;-86
2022/03/08 05:11:55;;;;;;;4.88;3.00;;;2.20;69.80;;;;;;2080865;28;20503;-86
2022/03/08 05:12:56;;;;;;;5.07;3.03;;;2.20;69.80;;;;;;2081804;28;20064;-86
2022/03/08 05:13:56;;;;;;;4.68;3.05;;;2.20;69.90;;;;;;2080323;28;20065;-86
2022/03/08 05:14:57;;;;;;;5.70;3.30;;;2.20;69.90;;;;;;2073410;28;20067;-86
2022/03/08 05:15:58;;;;;;;4.90;3.10;;;2.20;70.00;;;;;;2077620;28;20053;-86
2022/03/08 05:16:59;;;;;;;4.68;3.10;;;2.20;70.00;;;;;;2082252;28;20029;-85
2022/03/08 05:17:59;;;;;;;8.20;3.58;;;2.20;70.00;;;;;;2081489;28;20471;-85
2022/03/08 05:19:00;;;;;;;4.20;2.53;;;2.20;70.00;;;;;;2079031;28;20121;-86
2022/03/08 05:20:04;;;;;;;4.22;2.88;;;2.10;70.60;;;;;;2076978;28;20022;-86
2022/03/08 05:21:04;;;;;;;5.05;3.00;;;2.10;70.00;;;;;;2080091;28;20026;-86